Nearby METAR Reports

 

KRDU - Raleigh/Durham, North Carolina, USA
Distance from station: NNW 20mi, 33km
Updated: Mon, 18-Oct-2021 5:51am EDT
Clear
Clear
 Wind from calm
Wind: Calm
Temperature: 45°F , 7°C
Dew Point: 43°F , 6°C
Humidity: 93%
Barometer: 30.11 inHg , 1019.6 hPa
Clouds: Clear
Visibility: 10 miles , 16 km
2021/10/18 09:51 KRDU 180951Z 00000KT 10SM CLR 07/06 A3011 RMK AO2 SLP197 T00720061 PNO
KJNX - Smithfield Johns, North Carolina, USA
Distance from station: ESE 17mi, 28km
Updated: Mon, 18-Oct-2021 6:15am EDT
Clear
Clear
 Wind from calm
Wind: Calm
Temperature: 41°F , 5°C
Dew Point: 41°F , 5°C
Humidity: 100%
Barometer: 30.11 inHg , 1019.6 hPa
Clouds: Clear
Visibility: 10 miles , 16 km
2021/10/18 10:15 KJNX 181015Z AUTO 00000KT 10SM CLR 05/05 A3011 RMK AO2
 
KLHZ - Louisburg/Frankl, North Carolina, USA
Distance from station: NE 33mi, 54km
Updated: Mon, 18-Oct-2021 6:15am EDT
Clear
Clear
 Wind from calm
Wind: Calm
Temperature: 45°F , 7°C
Dew Point: 39°F , 4°C
Humidity: 81%
Barometer: 30.13 inHg , 1020.3 hPa
Clouds: Clear
Visibility: 10 miles , 16 km
2021/10/18 10:15 KLHZ 181015Z AUTO 00000KT 10SM CLR 07/04 A3013 RMK AO2
KPOB - Pope Afb, North Carolina, USA
Distance from station: SSW 37mi, 59km
Updated: Mon, 18-Oct-2021 5:56am EDT
Clear
Clear
 Wind from W
Wind: W 5 mph , 7 km/h
Temperature: 45°F , 7°C
Wind Chill: 42°F , 6°C
Dew Point: 39°F , 4°C
Humidity: 81%
Barometer: 30.12 inHg , 1020 hPa
Clouds: Clear
Visibility: 10 miles , 16 km
2021/10/18 09:56 KPOB 180956Z AUTO 27004KT 10SM CLR 07/04 A3012 RMK AO2 SLP202 T00660044 $
 
KSCR - Siler City, North Carolina, USA
Distance from station: W 47mi, 75km
Updated: Mon, 18-Oct-2021 6:15am EDT
Clear
Clear
 Wind from calm
Wind: Calm
Temperature: 37°F , 3°C
Dew Point: 37°F , 3°C
Humidity: 100%
Barometer: 30.14 inHg , 1020.7 hPa
Clouds: Clear
Visibility: 10 miles , 16 km
2021/10/18 10:15 KSCR 181015Z AUTO 00000KT 10SM CLR 03/03 A3014 RMK AO2 T00260026
KTDF - Roxboro Person, North Carolina, USA
Distance from station: NNW 49mi, 79km
Updated: Mon, 18-Oct-2021 6:15am EDT
Clear
Clear
 Wind from calm
Wind: Calm
Temperature: 37°F , 3°C
Dew Point: 37°F , 3°C
Humidity: 100%
Barometer: 30.13 inHg , 1020.3 hPa
Clouds: Clear
Visibility: 10 miles , 16 km
2021/10/18 10:15 KTDF 181015Z AUTO 00000KT 10SM CLR 03/03 A3013 RMK AO2
 
KSOP - Southern Pines, North Carolina, USA
Distance from station: SW 50mi, 80km
Updated: Mon, 18-Oct-2021 5:56am EDT
Clear
Clear
 Wind from W
Wind: W 6 mph , 9 km/h
Temperature: 45°F , 7°C
Wind Chill: 42°F , 6°C
Dew Point: 39°F , 4°C
Humidity: 81%
Barometer: 30.14 inHg , 1020.7 hPa
Clouds: Clear
Visibility: 10 miles , 16 km
2021/10/18 09:56 KSOP 180956Z AUTO 26005KT 10SM CLR 07/04 A3014 RMK AO2 SLP210 T00670044
KHNZ - Henderson/Oxford, North Carolina, USA
Distance from station: N 52mi, 84km
Updated: Mon, 18-Oct-2021 6:15am EDT
Clear
Clear
 Wind from WSW
Wind: WSW 3 mph , 6 km/h
Temperature: 43°F , 6°C
Dew Point: 36°F , 2°C
Humidity: 76%
Barometer: 30.10 inHg , 1019.3 hPa
Clouds: Clear
Visibility: 10 miles , 16 km
2021/10/18 10:15 KHNZ 181015Z AUTO 24003KT 10SM CLR 06/02 A3010 RMK AO2 T00560021
 
KBUY - Burlington, North Carolina, USA
Distance from station: NW 54mi, 86km
Updated: Mon, 18-Oct-2021 5:54am EDT
Clear
Clear
 Wind from W
Wind: W 7 mph , 11 km/h
Temperature: 45°F , 7°C
Wind Chill: 41°F , 5°C
Dew Point: 39°F , 4°C
Humidity: 81%
Barometer: 30.12 inHg , 1020 hPa
Clouds: Clear
Visibility: 10 miles , 16 km
2021/10/18 09:54 KBUY 180954Z AUTO 26006KT 10SM CLR 07/04 A3012 RMK AO2 SLP197 T00720039
KTNB - Boone Watauga Ct, North Carolina, USA
Distance from station: SE 2mi, 3km
Updated: Mon, 18-Oct-2021 6:15am EDT

 Wind from WNW
Wind: WNW 9 mph , 15 km/h
Temperature: 43°F , 6°C
Wind Chill: 38°F , 3°C
Dew Point: 32°F , 0°C
Humidity: 66%
Barometer: 30.18 inHg , 1022 hPa
Visibility: 10 miles , 16 km
2021/10/18 10:15 KTNB 181015Z AUTO 29008KT 10SM 06/00 A3018 RMK AO2 T00631005
 
KGEV - Jefferson, North Carolina, USA
Distance from station: NE 21mi, 33km
Updated: Mon, 18-Oct-2021 6:15am EDT
Clear
Clear
 Wind from W
Wind: W 10 mph , 17 km/h
Temperature: 45°F , 7°C
Wind Chill: 40°F , 4°C
Dew Point: 30°F , -1°C
Humidity: 57%
Barometer: 30.16 inHg , 1021.3 hPa
Clouds: Clear
Visibility: 10 miles , 16 km
2021/10/18 10:15 KGEV 181015Z AUTO 27009KT 240V300 10SM CLR 07/M01 A3016 RMK AO2 T00711007
KFQD - Rutherfordton, North Carolina, USA
Distance from station: SSW 57mi, 92km
Updated: Mon, 18-Oct-2021 6:15am EDT
Clear
Clear
 Wind from calm
Wind: Calm
Temperature: 39°F , 4°C
Dew Point: 37°F , 3°C
Humidity: 93%
Barometer: 30.18 inHg , 1022 hPa
Clouds: Clear
Visibility: 10 miles , 16 km
2021/10/18 10:15 KFQD 181015Z AUTO 00000KT 10SM CLR 04/03 A3018 RMK AO2
 
KAVL - Asheville, North Carolina, USA
Distance from station: SW 72mi, 117km
Updated: Mon, 18-Oct-2021 5:54am EDT
Clear
Clear
 Wind from calm
Wind: Calm
Temperature: 37°F , 3°C
Dew Point: 36°F , 2°C
Humidity: 93%
Barometer: 30.21 inHg , 1023 hPa
Clouds: Clear
Visibility: 10 miles , 16 km
2021/10/18 09:54 KAVL 180954Z AUTO 00000KT 10SM CLR 03/02 A3021 RMK AO2 SLP227 T00330022